sensor_id;sensor_type;location;lat;lon;timestamp;temperature;humidity
16964;DHT22;8598;50.508;10.436;2022-11-15T00:02:22;5.80;99.90
16964;DHT22;8598;50.508;10.436;2022-11-15T00:04:48;5.70;99.90
16964;DHT22;8598;50.508;10.436;2022-11-15T00:07:15;5.60;99.90
16964;DHT22;8598;50.508;10.436;2022-11-15T00:09:42;5.50;99.90
16964;DHT22;8598;50.508;10.436;2022-11-15T00:12:09;5.50;99.90
16964;DHT22;8598;50.508;10.436;2022-11-15T00:14:35;5.40;99.90
16964;DHT22;8598;50.508;10.436;2022-11-15T00:17:03;5.50;99.90
16964;DHT22;8598;50.508;10.436;2022-11-15T00:19:30;5.40;99.90
16964;DHT22;8598;50.508;10.436;2022-11-15T00:21:57;5.50;99.90
16964;DHT22;8598;50.508;10.436;2022-11-15T00:24:23;5.50;99.90
16964;DHT22;8598;50.508;10.436;2022-11-15T00:26:50;5.50;99.90
16964;DHT22;8598;50.508;10.436;2022-11-15T00:29:17;5.40;99.90
16964;DHT22;8598;50.508;10.436;2022-11-15T00:31:43;5.30;99.90
16964;DHT22;8598;50.508;10.436;2022-11-15T00:34:12;5.20;99.90
16964;DHT22;8598;50.508;10.436;2022-11-15T00:36:39;5.10;99.90
16964;DHT22;8598;50.508;10.436;2022-11-15T00:39:05;5.10;99.90
16964;DHT22;8598;50.508;10.436;2022-11-15T00:41:32;5.10;99.90
16964;DHT22;8598;50.508;10.436;2022-11-15T00:43:59;5.10;99.90
16964;DHT22;8598;50.508;10.436;2022-11-15T00:46:26;5.20;99.90
16964;DHT22;8598;50.508;10.436;2022-11-15T00:48:52;5.20;99.90
16964;DHT22;8598;50.508;10.436;2022-11-15T00:51:21;5.10;99.90
16964;DHT22;8598;50.508;10.436;2022-11-15T00:53:47;5.10;99.90
16964;DHT22;8598;50.508;10.436;2022-11-15T00:56:14;5.00;99.90
16964;DHT22;8598;50.508;10.436;2022-11-15T00:58:41;5.00;99.90
16964;DHT22;8598;50.508;10.436;2022-11-15T01:01:09;4.80;99.90
16964;DHT22;8598;50.508;10.436;2022-11-15T01:03:37;4.80;99.90
16964;DHT22;8598;50.508;10.436;2022-11-15T01:06:05;4.80;99.90
16964;DHT22;8598;50.508;10.436;2022-11-15T01:08:33;4.80;99.90
16964;DHT22;8598;50.508;10.436;2022-11-15T01:11:01;4.80;99.90
16964;DHT22;8598;50.508;10.436;2022-11-15T01:13:30;4.80;99.90
16964;DHT22;8598;50.508;10.436;2022-11-15T01:15:57;4.90;99.90
16964;DHT22;8598;50.508;10.436;2022-11-15T01:18:24;4.90;99.90
16964;DHT22;8598;50.508;10.436;2022-11-15T01:20:51;5.00;99.90
16964;DHT22;8598;50.508;10.436;2022-11-15T01:23:18;5.00;99.90
16964;DHT22;8598;50.508;10.436;2022-11-15T01:25:46;5.10;99.90
16964;DHT22;8598;50.508;10.436;2022-11-15T01:28:13;5.10;99.90
16964;DHT22;8598;50.508;10.436;2022-11-15T01:30:40;5.10;99.90
16964;DHT22;8598;50.508;10.436;2022-11-15T01:33:06;5.20;99.90
16964;DHT22;8598;50.508;10.436;2022-11-15T01:35:33;5.10;99.90
16964;DHT22;8598;50.508;10.436;2022-11-15T01:38:04;5.10;99.90
16964;DHT22;8598;50.508;10.436;2022-11-15T01:40:31;5.00;99.90
16964;DHT22;8598;50.508;10.436;2022-11-15T01:42:59;4.90;99.90
16964;DHT22;8598;50.508;10.436;2022-11-15T01:45:26;4.80;99.90
16964;DHT22;8598;50.508;10.436;2022-11-15T01:47:54;4.70;99.90
16964;DHT22;8598;50.508;10.436;2022-11-15T01:50:24;4.70;99.90
16964;DHT22;8598;50.508;10.436;2022-11-15T01:52:52;4.50;99.90
16964;DHT22;8598;50.508;10.436;2022-11-15T01:55:22;4.50;99.90
16964;DHT22;8598;50.508;10.436;2022-11-15T01:57:51;4.50;99.90
16964;DHT22;8598;50.508;10.436;2022-11-15T02:00:21;4.50;99.90
16964;DHT22;8598;50.508;10.436;2022-11-15T02:02:47;4.50;99.90
16964;DHT22;8598;50.508;10.436;2022-11-15T02:05:14;4.60;99.90
16964;DHT22;8598;50.508;10.436;2022-11-15T02:07:41;4.60;99.90
16964;DHT22;8598;50.508;10.436;2022-11-15T02:10:10;4.50;99.90
16964;DHT22;8598;50.508;10.436;2022-11-15T02:12:37;4.40;99.90
16964;DHT22;8598;50.508;10.436;2022-11-15T02:15:05;4.40;99.90
16964;DHT22;8598;50.508;10.436;2022-11-15T02:17:55;4.50;99.90
16964;DHT22;8598;50.508;10.436;2022-11-15T02:20:43;4.40;99.90
16964;DHT22;8598;50.508;10.436;2022-11-15T02:26:49;4.30;99.90
16964;DHT22;8598;50.508;10.436;2022-11-15T02:29:28;4.30;99.90
16964;DHT22;8598;50.508;10.436;2022-11-15T02:32:05;4.20;99.90
16964;DHT22;8598;50.508;10.436;2022-11-15T02:34:42;4.20;99.90
16964;DHT22;8598;50.508;10.436;2022-11-15T02:37:15;4.10;99.90
16964;DHT22;8598;50.508;10.436;2022-11-15T02:39:49;4.10;99.90
16964;DHT22;8598;50.508;10.436;2022-11-15T02:42:21;4.10;99.90
16964;DHT22;8598;50.508;10.436;2022-11-15T02:45:09;4.10;99.90
16964;DHT22;8598;50.508;10.436;2022-11-15T02:47:44;4.10;99.90
16964;DHT22;8598;50.508;10.436;2022-11-15T02:50:14;3.90;99.90
16964;DHT22;8598;50.508;10.436;2022-11-15T02:52:45;3.90;99.90
16964;DHT22;8598;50.508;10.436;2022-11-15T02:55:27;3.80;99.90
16964;DHT22;8598;50.508;10.436;2022-11-15T02:58:03;3.70;99.90
16964;DHT22;8598;50.508;10.436;2022-11-15T03:00:35;3.70;99.90
16964;DHT22;8598;50.508;10.436;2022-11-15T03:03:21;3.70;99.90
16964;DHT22;8598;50.508;10.436;2022-11-15T03:05:56;3.80;99.90
16964;DHT22;8598;50.508;10.436;2022-11-15T03:08:31;3.80;99.90
16964;DHT22;8598;50.508;10.436;2022-11-15T03:11:03;3.80;99.90
16964;DHT22;8598;50.508;10.436;2022-11-15T03:13:36;3.70;99.90
16964;DHT22;8598;50.508;10.436;2022-11-15T03:16:08;3.40;99.90
16964;DHT22;8598;50.508;10.436;2022-11-15T03:18:38;3.30;99.90
16964;DHT22;8598;50.508;10.436;2022-11-15T03:21:08;3.20;99.90
16964;DHT22;8598;50.508;10.436;2022-11-15T03:23:38;3.10;99.90
16964;DHT22;8598;50.508;10.436;2022-11-15T03:26:07;3.10;99.90
16964;DHT22;8598;50.508;10.436;2022-11-15T03:28:38;3.10;99.90
16964;DHT22;8598;50.508;10.436;2022-11-15T03:31:06;3.10;99.90
16964;DHT22;8598;50.508;10.436;2022-11-15T03:33:49;3.20;99.90
16964;DHT22;8598;50.508;10.436;2022-11-15T03:36:18;3.30;99.90
16964;DHT22;8598;50.508;10.436;2022-11-15T03:38:45;3.30;99.90
16964;DHT22;8598;50.508;10.436;2022-11-15T03:41:16;3.40;99.90
16964;DHT22;8598;50.508;10.436;2022-11-15T03:43:49;3.40;99.90
16964;DHT22;8598;50.508;10.436;2022-11-15T03:46:23;3.50;99.90
16964;DHT22;8598;50.508;10.436;2022-11-15T03:48:56;3.50;99.90
16964;DHT22;8598;50.508;10.436;2022-11-15T03:51:25;3.40;99.90
16964;DHT22;8598;50.508;10.436;2022-11-15T03:53:52;3.40;99.90
16964;DHT22;8598;50.508;10.436;2022-11-15T03:56:19;3.40;99.90
16964;DHT22;8598;50.508;10.436;2022-11-15T03:58:46;3.20;99.90
16964;DHT22;8598;50.508;10.436;2022-11-15T04:01:12;3.10;99.90
16964;DHT22;8598;50.508;10.436;2022-11-15T04:03:39;3.00;99.90
16964;DHT22;8598;50.508;10.436;2022-11-15T04:06:07;3.00;99.90
16964;DHT22;8598;50.508;10.436;2022-11-15T04:08:34;3.00;99.90
16964;DHT22;8598;50.508;10.436;2022-11-15T04:11:01;2.90;99.90
16964;DHT22;8598;50.508;10.436;2022-11-15T04:13:27;2.90;99.90
16964;DHT22;8598;50.508;10.436;2022-11-15T04:15:54;2.90;99.90
16964;DHT22;8598;50.508;10.436;2022-11-15T04:18:21;2.90;99.90
16964;DHT22;8598;50.508;10.436;2022-11-15T04:20:48;3.00;99.90
16964;DHT22;8598;50.508;10.436;2022-11-15T04:23:34;3.00;99.90
16964;DHT22;8598;50.508;10.436;2022-11-15T04:26:20;3.00;99.90
16964;DHT22;8598;50.508;10.436;2022-11-15T04:28:47;3.00;99.90
16964;DHT22;8598;50.508;10.436;2022-11-15T04:31:28;2.90;99.90
16964;DHT22;8598;50.508;10.436;2022-11-15T04:33:55;2.90;99.90
16964;DHT22;8598;50.508;10.436;2022-11-15T04:36:22;2.80;99.90
16964;DHT22;8598;50.508;10.436;2022-11-15T04:39:04;2.90;99.90
16964;DHT22;8598;50.508;10.436;2022-11-15T04:41:31;2.80;99.90
16964;DHT22;8598;50.508;10.436;2022-11-15T04:43:58;2.60;99.90
16964;DHT22;8598;50.508;10.436;2022-11-15T04:46:25;2.50;99.90
16964;DHT22;8598;50.508;10.436;2022-11-15T04:48:52;2.40;99.90
16964;DHT22;8598;50.508;10.436;2022-11-15T04:51:20;2.40;99.90
16964;DHT22;8598;50.508;10.436;2022-11-15T04:53:47;2.30;99.90
16964;DHT22;8598;50.508;10.436;2022-11-15T04:56:15;2.30;99.90
16964;DHT22;8598;50.508;10.436;2022-11-15T04:58:41;2.30;99.90
16964;DHT22;8598;50.508;10.436;2022-11-15T05:01:08;1.50;99.90
16964;DHT22;8598;50.508;10.436;2022-11-15T05:03:35;2.30;99.90
16964;DHT22;8598;50.508;10.436;2022-11-15T05:06:20;2.30;99.90
16964;DHT22;8598;50.508;10.436;2022-11-15T05:08:47;2.20;99.90
16964;DHT22;8598;50.508;10.436;2022-11-15T05:11:15;2.20;99.90
16964;DHT22;8598;50.508;10.436;2022-11-15T05:13:41;2.20;99.90
16964;DHT22;8598;50.508;10.436;2022-11-15T05:16:08;2.10;99.90
16964;DHT22;8598;50.508;10.436;2022-11-15T05:18:35;2.10;99.90
16964;DHT22;8598;50.508;10.436;2022-11-15T05:21:03;2.10;99.90
16964;DHT22;8598;50.508;10.436;2022-11-15T05:23:30;2.10;99.90
16964;DHT22;8598;50.508;10.436;2022-11-15T05:25:59;2.10;99.90
16964;DHT22;8598;50.508;10.436;2022-11-15T05:28:27;2.10;99.90
16964;DHT22;8598;50.508;10.436;2022-11-15T05:31:00;2.10;99.90
16964;DHT22;8598;50.508;10.436;2022-11-15T05:33:27;2.00;99.90
16964;DHT22;8598;50.508;10.436;2022-11-15T05:35:57;2.00;99.90
16964;DHT22;8598;50.508;10.436;2022-11-15T05:38:26;1.90;99.90
16964;DHT22;8598;50.508;10.436;2022-11-15T05:40:52;1.80;99.90
16964;DHT22;8598;50.508;10.436;2022-11-15T05:43:20;1.80;99.90
16964;DHT22;8598;50.508;10.436;2022-11-15T05:45:48;1.80;99.90
16964;DHT22;8598;50.508;10.436;2022-11-15T05:48:16;1.80;99.90
16964;DHT22;8598;50.508;10.436;2022-11-15T05:50:45;1.80;99.90
16964;DHT22;8598;50.508;10.436;2022-11-15T05:53:14;1.80;99.90
16964;DHT22;8598;50.508;10.436;2022-11-15T05:55:42;1.70;99.90
16964;DHT22;8598;50.508;10.436;2022-11-15T05:58:09;1.70;99.90
16964;DHT22;8598;50.508;10.436;2022-11-15T06:00:36;1.70;99.90
16964;DHT22;8598;50.508;10.436;2022-11-15T06:03:04;1.70;99.90
16964;DHT22;8598;50.508;10.436;2022-11-15T06:05:31;1.60;99.90
16964;DHT22;8598;50.508;10.436;2022-11-15T06:07:58;1.50;99.90
16964;DHT22;8598;50.508;10.436;2022-11-15T06:10:25;1.50;99.90
16964;DHT22;8598;50.508;10.436;2022-11-15T06:12:56;1.40;99.90
16964;DHT22;8598;50.508;10.436;2022-11-15T06:15:23;1.40;99.90
16964;DHT22;8598;50.508;10.436;2022-11-15T06:17:50;1.30;99.90
16964;DHT22;8598;50.508;10.436;2022-11-15T06:20:18;1.30;99.90
16964;DHT22;8598;50.508;10.436;2022-11-15T06:22:45;1.30;99.90
16964;DHT22;8598;50.508;10.436;2022-11-15T06:25:12;1.30;99.90
16964;DHT22;8598;50.508;10.436;2022-11-15T06:27:39;1.40;99.90
16964;DHT22;8598;50.508;10.436;2022-11-15T06:30:06;1.40;99.90
16964;DHT22;8598;50.508;10.436;2022-11-15T06:32:33;1.30;99.90
16964;DHT22;8598;50.508;10.436;2022-11-15T06:35:00;1.30;99.90
16964;DHT22;8598;50.508;10.436;2022-11-15T06:37:28;1.40;99.90
16964;DHT22;8598;50.508;10.436;2022-11-15T06:39:55;1.40;99.90
16964;DHT22;8598;50.508;10.436;2022-11-15T06:42:21;1.40;99.90
16964;DHT22;8598;50.508;10.436;2022-11-15T06:44:48;1.40;99.90
16964;DHT22;8598;50.508;10.436;2022-11-15T06:47:15;1.40;99.90
16964;DHT22;8598;50.508;10.436;2022-11-15T06:49:41;1.40;99.90
16964;DHT22;8598;50.508;10.436;2022-11-15T06:52:08;1.40;99.90
16964;DHT22;8598;50.508;10.436;2022-11-15T06:54:36;1.50;99.90
16964;DHT22;8598;50.508;10.436;2022-11-15T06:57:04;1.60;99.90
16964;DHT22;8598;50.508;10.436;2022-11-15T06:59:31;1.60;99.90
16964;DHT22;8598;50.508;10.436;2022-11-15T07:01:57;1.70;99.90
16964;DHT22;8598;50.508;10.436;2022-11-15T07:04:24;1.80;99.90
16964;DHT22;8598;50.508;10.436;2022-11-15T07:06:51;1.90;99.90
16964;DHT22;8598;50.508;10.436;2022-11-15T07:09:18;2.00;99.90
16964;DHT22;8598;50.508;10.436;2022-11-15T07:11:46;2.10;99.90
16964;DHT22;8598;50.508;10.436;2022-11-15T07:14:13;2.30;99.90
16964;DHT22;8598;50.508;10.436;2022-11-15T07:16:39;2.50;99.90
16964;DHT22;8598;50.508;10.436;2022-11-15T07:19:06;2.60;99.90
16964;DHT22;8598;50.508;10.436;2022-11-15T07:21:34;2.80;99.90
16964;DHT22;8598;50.508;10.436;2022-11-15T07:24:01;2.90;99.90
16964;DHT22;8598;50.508;10.436;2022-11-15T07:26:29;2.80;99.90
16964;DHT22;8598;50.508;10.436;2022-11-15T07:28:57;2.90;99.90
16964;DHT22;8598;50.508;10.436;2022-11-15T07:31:24;3.20;99.90
16964;DHT22;8598;50.508;10.436;2022-11-15T07:33:51;3.20;99.90
16964;DHT22;8598;50.508;10.436;2022-11-15T07:36:17;3.30;99.90
16964;DHT22;8598;50.508;10.436;2022-11-15T07:38:44;3.40;99.90
16964;DHT22;8598;50.508;10.436;2022-11-15T07:41:11;3.50;99.90
16964;DHT22;8598;50.508;10.436;2022-11-15T07:43:37;3.60;99.90
16964;DHT22;8598;50.508;10.436;2022-11-15T07:46:07;3.60;99.90
16964;DHT22;8598;50.508;10.436;2022-11-15T07:48:35;3.70;99.90
16964;DHT22;8598;50.508;10.436;2022-11-15T07:51:02;3.80;99.90
16964;DHT22;8598;50.508;10.436;2022-11-15T07:53:28;3.90;99.90
16964;DHT22;8598;50.508;10.436;2022-11-15T07:55:55;4.10;99.90
16964;DHT22;8598;50.508;10.436;2022-11-15T07:58:22;4.10;99.90
16964;DHT22;8598;50.508;10.436;2022-11-15T08:00:49;4.00;99.90
16964;DHT22;8598;50.508;10.436;2022-11-15T08:03:17;4.10;99.90
16964;DHT22;8598;50.508;10.436;2022-11-15T08:05:50;4.00;99.90
16964;DHT22;8598;50.508;10.436;2022-11-15T08:08:17;4.00;99.90
16964;DHT22;8598;50.508;10.436;2022-11-15T08:10:43;4.10;99.90
16964;DHT22;8598;50.508;10.436;2022-11-15T08:13:11;4.20;99.90
16964;DHT22;8598;50.508;10.436;2022-11-15T08:15:38;4.40;99.90
16964;DHT22;8598;50.508;10.436;2022-11-15T08:18:06;4.50;99.90
16964;DHT22;8598;50.508;10.436;2022-11-15T08:20:36;4.60;99.90
16964;DHT22;8598;50.508;10.436;2022-11-15T08:23:04;4.70;99.90
16964;DHT22;8598;50.508;10.436;2022-11-15T08:25:32;4.80;99.90
16964;DHT22;8598;50.508;10.436;2022-11-15T08:28:01;4.90;99.90
16964;DHT22;8598;50.508;10.436;2022-11-15T08:30:29;4.90;99.90
16964;DHT22;8598;50.508;10.436;2022-11-15T08:32:57;5.00;99.90
16964;DHT22;8598;50.508;10.436;2022-11-15T08:35:24;5.00;99.90
16964;DHT22;8598;50.508;10.436;2022-11-15T08:37:53;5.10;99.90
16964;DHT22;8598;50.508;10.436;2022-11-15T08:40:20;5.20;99.90
16964;DHT22;8598;50.508;10.436;2022-11-15T08:42:47;5.20;99.90
16964;DHT22;8598;50.508;10.436;2022-11-15T08:45:15;5.30;99.90
16964;DHT22;8598;50.508;10.436;2022-11-15T08:47:41;5.30;99.90
16964;DHT22;8598;50.508;10.436;2022-11-15T08:50:08;5.30;99.90
16964;DHT22;8598;50.508;10.436;2022-11-15T08:52:35;5.40;99.90
16964;DHT22;8598;50.508;10.436;2022-11-15T08:55:04;5.60;99.90
16964;DHT22;8598;50.508;10.436;2022-11-15T08:57:31;5.60;99.90
16964;DHT22;8598;50.508;10.436;2022-11-15T08:59:58;5.90;99.90
16964;DHT22;8598;50.508;10.436;2022-11-15T09:02:25;6.00;99.90
16964;DHT22;8598;50.508;10.436;2022-11-15T09:04:51;6.20;99.90
16964;DHT22;8598;50.508;10.436;2022-11-15T09:07:18;6.30;99.90
16964;DHT22;8598;50.508;10.436;2022-11-15T09:09:45;6.60;99.90
16964;DHT22;8598;50.508;10.436;2022-11-15T09:12:13;6.70;99.90
16964;DHT22;8598;50.508;10.436;2022-11-15T09:14:40;6.90;99.90
16964;DHT22;8598;50.508;10.436;2022-11-15T09:17:07;6.90;99.90
16964;DHT22;8598;50.508;10.436;2022-11-15T09:19:34;7.00;99.90
16964;DHT22;8598;50.508;10.436;2022-11-15T09:22:05;7.10;99.90
16964;DHT22;8598;50.508;10.436;2022-11-15T09:24:32;7.20;99.90
16964;DHT22;8598;50.508;10.436;2022-11-15T09:26:58;7.40;99.90
16964;DHT22;8598;50.508;10.436;2022-11-15T09:29:26;7.50;99.90
16964;DHT22;8598;50.508;10.436;2022-11-15T09:31:53;7.60;99.90
16964;DHT22;8598;50.508;10.436;2022-11-15T09:34:20;7.80;99.90
16964;DHT22;8598;50.508;10.436;2022-11-15T09:36:47;7.90;99.90
16964;DHT22;8598;50.508;10.436;2022-11-15T09:39:14;8.00;99.90
16964;DHT22;8598;50.508;10.436;2022-11-15T09:45:09;8.20;99.90
16964;DHT22;8598;50.508;10.436;2022-11-15T09:48:18;8.30;99.90
16964;DHT22;8598;50.508;10.436;2022-11-15T09:50:48;8.40;99.90
16964;DHT22;8598;50.508;10.436;2022-11-15T09:53:22;8.50;99.90
16964;DHT22;8598;50.508;10.436;2022-11-15T09:55:54;8.50;99.90
16964;DHT22;8598;50.508;10.436;2022-11-15T09:58:26;8.60;99.90
16964;DHT22;8598;50.508;10.436;2022-11-15T10:00:58;8.80;99.90
16964;DHT22;8598;50.508;10.436;2022-11-15T10:03:28;9.20;99.90
16964;DHT22;8598;50.508;10.436;2022-11-15T10:06:00;9.10;99.90
16964;DHT22;8598;50.508;10.436;2022-11-15T10:08:40;9.30;99.90
16964;DHT22;8598;50.508;10.436;2022-11-15T10:11:12;9.40;99.90
16964;DHT22;8598;50.508;10.436;2022-11-15T10:13:44;9.60;99.90
16964;DHT22;8598;50.508;10.436;2022-11-15T10:16:26;9.80;99.90
16964;DHT22;8598;50.508;10.436;2022-11-15T10:19:00;9.80;99.90
16964;DHT22;8598;50.508;10.436;2022-11-15T10:21:39;9.80;99.90
16964;DHT22;8598;50.508;10.436;2022-11-15T10:24:11;9.90;99.90
16964;DHT22;8598;50.508;10.436;2022-11-15T10:26:38;10.00;99.90
16964;DHT22;8598;50.508;10.436;2022-11-15T10:29:05;10.00;99.90
16964;DHT22;8598;50.508;10.436;2022-11-15T10:31:33;10.20;99.90
16964;DHT22;8598;50.508;10.436;2022-11-15T10:34:16;10.20;99.90
16964;DHT22;8598;50.508;10.436;2022-11-15T10:36:45;10.30;99.90
16964;DHT22;8598;50.508;10.436;2022-11-15T10:39:13;10.40;99.90
16964;DHT22;8598;50.508;10.436;2022-11-15T10:41:41;10.40;99.90
16964;DHT22;8598;50.508;10.436;2022-11-15T10:44:21;10.50;99.90
16964;DHT22;8598;50.508;10.436;2022-11-15T10:49:54;10.70;99.90
16964;DHT22;8598;50.508;10.436;2022-11-15T10:52:21;10.80;99.90
16964;DHT22;8598;50.508;10.436;2022-11-15T10:54:49;10.80;99.90
16964;DHT22;8598;50.508;10.436;2022-11-15T10:57:19;10.90;99.90
16964;DHT22;8598;50.508;10.436;2022-11-15T10:59:48;10.90;99.90
16964;DHT22;8598;50.508;10.436;2022-11-15T11:02:35;11.10;99.90
16964;DHT22;8598;50.508;10.436;2022-11-15T11:05:04;11.10;99.90
16964;DHT22;8598;50.508;10.436;2022-11-15T11:07:34;11.20;99.90
16964;DHT22;8598;50.508;10.436;2022-11-15T11:10:04;11.30;99.90
16964;DHT22;8598;50.508;10.436;2022-11-15T11:12:33;11.30;99.90
16964;DHT22;8598;50.508;10.436;2022-11-15T11:15:08;11.40;99.90
16964;DHT22;8598;50.508;10.436;2022-11-15T11:17:55;11.40;99.90
16964;DHT22;8598;50.508;10.436;2022-11-15T11:20:26;11.50;99.90
16964;DHT22;8598;50.508;10.436;2022-11-15T11:25:57;11.60;99.90
16964;DHT22;8598;50.508;10.436;2022-11-15T11:28:39;11.70;99.90
16964;DHT22;8598;50.508;10.436;2022-11-15T11:31:17;11.70;99.90
16964;DHT22;8598;50.508;10.436;2022-11-15T11:33:52;11.80;99.90
16964;DHT22;8598;50.508;10.436;2022-11-15T11:36:26;11.80;99.90
16964;DHT22;8598;50.508;10.436;2022-11-15T11:39:00;11.90;99.90
16964;DHT22;8598;50.508;10.436;2022-11-15T11:41:47;12.00;99.90
16964;DHT22;8598;50.508;10.436;2022-11-15T11:44:30;12.10;99.90
16964;DHT22;8598;50.508;10.436;2022-11-15T11:47:00;12.20;99.90
16964;DHT22;8598;50.508;10.436;2022-11-15T11:49:33;12.30;99.90
16964;DHT22;8598;50.508;10.436;2022-11-15T11:52:05;12.40;99.90
16964;DHT22;8598;50.508;10.436;2022-11-15T11:54:40;12.30;99.90
16964;DHT22;8598;50.508;10.436;2022-11-15T11:57:14;12.40;99.90
16964;DHT22;8598;50.508;10.436;2022-11-15T11:59:47;12.30;99.90
16964;DHT22;8598;50.508;10.436;2022-11-15T12:02:18;12.40;99.90
16964;DHT22;8598;50.508;10.436;2022-11-15T12:04:51;12.40;99.90
16964;DHT22;8598;50.508;10.436;2022-11-15T12:07:23;12.40;99.90
16964;DHT22;8598;50.508;10.436;2022-11-15T12:09:55;12.40;99.90
16964;DHT22;8598;50.508;10.436;2022-11-15T12:12:31;12.40;99.90
16964;DHT22;8598;50.508;10.436;2022-11-15T12:15:02;12.30;99.90
16964;DHT22;8598;50.508;10.436;2022-11-15T12:17:32;12.20;99.90
16964;DHT22;8598;50.508;10.436;2022-11-15T12:20:02;12.10;99.90
16964;DHT22;8598;50.508;10.436;2022-11-15T12:22:38;12.10;99.90
16964;DHT22;8598;50.508;10.436;2022-11-15T12:25:14;12.00;99.90
16964;DHT22;8598;50.508;10.436;2022-11-15T12:27:48;12.10;99.90
16964;DHT22;8598;50.508;10.436;2022-11-15T12:30:18;12.10;99.90
16964;DHT22;8598;50.508;10.436;2022-11-15T12:32:54;12.20;99.90
16964;DHT22;8598;50.508;10.436;2022-11-15T12:35:34;12.10;99.90
16964;DHT22;8598;50.508;10.436;2022-11-15T12:38:03;12.20;99.90
16964;DHT22;8598;50.508;10.436;2022-11-15T12:40:35;12.30;99.90
16964;DHT22;8598;50.508;10.436;2022-11-15T12:45:52;12.20;99.90
16964;DHT22;8598;50.508;10.436;2022-11-15T12:48:53;12.20;99.90
16964;DHT22;8598;50.508;10.436;2022-11-15T12:57:31;12.30;99.90
16964;DHT22;8598;50.508;10.436;2022-11-15T13:00:00;12.30;99.90
16964;DHT22;8598;50.508;10.436;2022-11-15T13:02:30;12.30;99.90
16964;DHT22;8598;50.508;10.436;2022-11-15T13:08:07;12.40;99.90
16964;DHT22;8598;50.508;10.436;2022-11-15T13:10:34;12.50;99.90
16964;DHT22;8598;50.508;10.436;2022-11-15T13:13:03;12.70;99.90
16964;DHT22;8598;50.508;10.436;2022-11-15T13:18:37;12.80;99.90
16964;DHT22;8598;50.508;10.436;2022-11-15T13:21:17;12.90;99.90
16964;DHT22;8598;50.508;10.436;2022-11-15T13:24:04;13.00;99.90
16964;DHT22;8598;50.508;10.436;2022-11-15T13:26:31;13.10;99.90
16964;DHT22;8598;50.508;10.436;2022-11-15T13:28:59;13.20;99.90
16964;DHT22;8598;50.508;10.436;2022-11-15T13:31:34;13.20;99.90
16964;DHT22;8598;50.508;10.436;2022-11-15T13:34:14;13.30;99.90
16964;DHT22;8598;50.508;10.436;2022-11-15T13:36:42;13.20;99.90
16964;DHT22;8598;50.508;10.436;2022-11-15T13:39:25;13.20;99.90
16964;DHT22;8598;50.508;10.436;2022-11-15T13:41:52;13.20;99.90
16964;DHT22;8598;50.508;10.436;2022-11-15T13:44:21;13.20;99.90
16964;DHT22;8598;50.508;10.436;2022-11-15T13:46:48;13.20;99.90
16964;DHT22;8598;50.508;10.436;2022-11-15T13:49:15;13.10;99.90
16964;DHT22;8598;50.508;10.436;2022-11-15T13:51:44;13.00;99.90
16964;DHT22;8598;50.508;10.436;2022-11-15T13:54:18;12.90;99.90
16964;DHT22;8598;50.508;10.436;2022-11-15T13:56:49;12.80;99.90
16964;DHT22;8598;50.508;10.436;2022-11-15T13:59:24;12.70;99.90
16964;DHT22;8598;50.508;10.436;2022-11-15T14:01:52;12.60;99.90
16964;DHT22;8598;50.508;10.436;2022-11-15T14:04:22;12.40;99.90
16964;DHT22;8598;50.508;10.436;2022-11-15T14:06:50;12.20;99.90
16964;DHT22;8598;50.508;10.436;2022-11-15T14:09:31;12.10;99.90
16964;DHT22;8598;50.508;10.436;2022-11-15T14:12:00;11.90;99.90
16964;DHT22;8598;50.508;10.436;2022-11-15T14:14:28;11.70;99.90
16964;DHT22;8598;50.508;10.436;2022-11-15T14:16:56;11.60;99.90
16964;DHT22;8598;50.508;10.436;2022-11-15T14:19:38;11.60;99.90
16964;DHT22;8598;50.508;10.436;2022-11-15T14:22:23;11.60;99.90
16964;DHT22;8598;50.508;10.436;2022-11-15T14:25:15;11.50;99.90
16964;DHT22;8598;50.508;10.436;2022-11-15T14:27:44;11.40;99.90
16964;DHT22;8598;50.508;10.436;2022-11-15T14:30:15;11.20;99.90
16964;DHT22;8598;50.508;10.436;2022-11-15T14:32:44;11.20;99.90
16964;DHT22;8598;50.508;10.436;2022-11-15T14:35:14;11.20;99.90
16964;DHT22;8598;50.508;10.436;2022-11-15T14:37:41;11.10;99.90
16964;DHT22;8598;50.508;10.436;2022-11-15T14:40:13;11.10;99.90
16964;DHT22;8598;50.508;10.436;2022-11-15T14:42:42;11.10;99.90
16964;DHT22;8598;50.508;10.436;2022-11-15T14:45:12;11.20;99.90
16964;DHT22;8598;50.508;10.436;2022-11-15T14:47:40;11.20;99.90
16964;DHT22;8598;50.508;10.436;2022-11-15T14:50:11;11.20;99.90
16964;DHT22;8598;50.508;10.436;2022-11-15T14:52:38;11.30;99.90
16964;DHT22;8598;50.508;10.436;2022-11-15T14:55:18;11.20;99.90
16964;DHT22;8598;50.508;10.436;2022-11-15T14:57:47;11.20;99.90
16964;DHT22;8598;50.508;10.436;2022-11-15T15:00:15;11.10;99.90
16964;DHT22;8598;50.508;10.436;2022-11-15T15:02:43;11.10;99.90
16964;DHT22;8598;50.508;10.436;2022-11-15T15:05:15;11.10;99.90
16964;DHT22;8598;50.508;10.436;2022-11-15T15:07:42;11.00;99.90
16964;DHT22;8598;50.508;10.436;2022-11-15T15:10:09;11.00;99.90
16964;DHT22;8598;50.508;10.436;2022-11-15T15:12:36;10.90;99.90
16964;DHT22;8598;50.508;10.436;2022-11-15T15:15:05;10.90;99.90
16964;DHT22;8598;50.508;10.436;2022-11-15T15:17:32;10.80;99.90
16964;DHT22;8598;50.508;10.436;2022-11-15T15:19:59;10.80;99.90
16964;DHT22;8598;50.508;10.436;2022-11-15T15:22:28;10.70;99.90
16964;DHT22;8598;50.508;10.436;2022-11-15T15:24:55;10.70;99.90
16964;DHT22;8598;50.508;10.436;2022-11-15T15:27:22;10.60;99.90
16964;DHT22;8598;50.508;10.436;2022-11-15T15:29:49;10.60;99.90
16964;DHT22;8598;50.508;10.436;2022-11-15T15:32:17;10.50;99.90
16964;DHT22;8598;50.508;10.436;2022-11-15T15:34:44;10.40;99.90
16964;DHT22;8598;50.508;10.436;2022-11-15T15:37:22;10.30;99.90
16964;DHT22;8598;50.508;10.436;2022-11-15T15:39:49;10.20;99.90
16964;DHT22;8598;50.508;10.436;2022-11-15T15:42:16;10.10;99.90
16964;DHT22;8598;50.508;10.436;2022-11-15T15:44:43;10.10;99.90
16964;DHT22;8598;50.508;10.436;2022-11-15T15:47:11;10.00;99.90
16964;DHT22;8598;50.508;10.436;2022-11-15T15:49:40;9.90;99.90
16964;DHT22;8598;50.508;10.436;2022-11-15T15:52:06;9.90;99.90
16964;DHT22;8598;50.508;10.436;2022-11-15T15:54:33;9.70;99.90
16964;DHT22;8598;50.508;10.436;2022-11-15T15:57:00;9.70;99.90
16964;DHT22;8598;50.508;10.436;2022-11-15T15:59:26;9.50;99.90
16964;DHT22;8598;50.508;10.436;2022-11-15T16:01:53;9.40;99.90
16964;DHT22;8598;50.508;10.436;2022-11-15T16:04:20;9.20;99.90
16964;DHT22;8598;50.508;10.436;2022-11-15T16:06:48;9.10;99.90
16964;DHT22;8598;50.508;10.436;2022-11-15T16:09:19;9.00;99.90
16964;DHT22;8598;50.508;10.436;2022-11-15T16:12:07;9.00;99.90
16964;DHT22;8598;50.508;10.436;2022-11-15T16:14:33;8.90;99.90
16964;DHT22;8598;50.508;10.436;2022-11-15T16:17:00;8.80;99.90
16964;DHT22;8598;50.508;10.436;2022-11-15T16:19:27;8.70;99.90
16964;DHT22;8598;50.508;10.436;2022-11-15T16:21:55;8.60;99.90
16964;DHT22;8598;50.508;10.436;2022-11-15T16:24:22;8.70;99.90
16964;DHT22;8598;50.508;10.436;2022-11-15T16:26:49;8.60;99.90
16964;DHT22;8598;50.508;10.436;2022-11-15T16:29:17;8.60;99.90